Time;durP1;ratioP1;P1;durP2;ratioP2;P2;SDS_P1;SDS_P2;PMS_P1;PMS_P2;Temp;Humidity;BMP_temperature;BMP_pressure;BME280_temperature;BME280_humidity;BME280_pressure;Samples;Min_cycle;Max_cycle;Signal;HPM_P1;HPM_P2
2021/06/28 00:00:24;;;;;;;8.07;6.68;;;20.20;99.90;;;;;;5048519;28;20104;-85
2021/06/28 00:02:50;;;;;;;7.47;6.28;;;20.20;99.90;;;;;;5047259;28;20036;-85
2021/06/28 00:05:18;;;;;;;7.60;6.20;;;20.20;99.90;;;;;;5047272;28;20029;-85
2021/06/28 00:07:45;;;;;;;8.93;6.20;;;20.20;99.90;;;;;;5047349;28;20021;-85
2021/06/28 00:10:13;;;;;;;7.47;6.45;;;20.20;99.90;;;;;;5047134;28;20532;-85
2021/06/28 00:12:39;;;;;;;7.70;6.45;;;20.20;99.90;;;;;;5047145;28;20049;-85
2021/06/28 00:15:09;;;;;;;8.00;6.82;;;20.20;99.90;;;;;;5047172;28;20136;-86
2021/06/28 00:17:35;;;;;;;7.05;5.90;;;20.20;99.90;;;;;;5037345;28;20029;-85
2021/06/28 00:20:00;;;;;;;9.00;6.90;;;20.20;99.90;;;;;;5033598;28;20091;-85
2021/06/28 00:22:26;;;;;;;9.02;6.55;;;20.20;99.90;;;;;;5034947;28;20390;-85
2021/06/28 00:24:51;;;;;;;7.53;6.05;;;20.10;99.90;;;;;;5034806;28;20021;-86
2021/06/28 00:27:22;;;;;;;7.72;6.25;;;20.10;99.90;;;;;;5034942;28;20051;-87
2021/06/28 00:29:48;;;;;;;6.75;6.05;;;20.10;99.90;;;;;;5033625;28;20025;-86
2021/06/28 00:32:14;;;;;;;7.07;6.35;;;20.10;99.90;;;;;;5033541;28;20116;-86
2021/06/28 00:34:39;;;;;;;8.93;6.68;;;20.10;99.90;;;;;;5033628;28;20017;-88
2021/06/28 00:37:05;;;;;;;7.95;6.93;;;20.10;99.90;;;;;;5034803;28;20025;-85
2021/06/28 00:39:31;;;;;;;7.47;6.45;;;20.10;99.90;;;;;;5034641;28;20368;-85
2021/06/28 00:41:56;;;;;;;8.27;6.72;;;20.10;99.90;;;;;;5033452;28;20390;-85
2021/06/28 00:44:22;;;;;;;6.55;5.80;;;20.00;99.90;;;;;;5033234;28;20028;-86
2021/06/28 00:46:47;;;;;;;10.27;6.72;;;20.00;99.90;;;;;;5033187;28;20478;-85
2021/06/28 00:49:13;;;;;;;7.35;6.35;;;20.00;99.90;;;;;;5033173;28;20112;-86
2021/06/28 00:51:39;;;;;;;9.68;6.75;;;20.00;99.90;;;;;;5033254;28;20071;-85
2021/06/28 00:54:05;;;;;;;7.90;6.75;;;20.00;99.90;;;;;;5033209;28;20028;-86
2021/06/28 00:56:30;;;;;;;8.73;6.97;;;20.00;99.90;;;;;;5033198;28;20026;-85
2021/06/28 00:58:57;;;;;;;7.95;6.85;;;20.00;99.90;;;;;;5033017;28;20021;-89
2021/06/28 01:01:22;;;;;;;8.57;6.95;;;20.00;99.90;;;;;;5032991;28;20367;-85
2021/06/28 01:03:48;;;;;;;8.98;7.28;;;19.90;99.90;;;;;;5033069;28;20032;-88
2021/06/28 01:06:15;;;;;;;8.73;6.80;;;19.90;99.90;;;;;;5032904;28;20035;-85
2021/06/28 01:08:41;;;;;;;7.82;6.72;;;19.80;99.90;;;;;;5033124;28;20033;-87
2021/06/28 01:11:07;;;;;;;10.55;7.40;;;19.80;99.90;;;;;;5032933;28;20026;-89
2021/06/28 01:13:34;;;;;;;9.82;7.50;;;19.80;99.90;;;;;;5034138;28;20096;-85
2021/06/28 01:16:02;;;;;;;9.13;7.13;;;19.80;99.90;;;;;;5045066;28;20080;-85
2021/06/28 01:18:28;;;;;;;10.57;7.13;;;19.80;99.90;;;;;;5045502;28;20034;-85
2021/06/28 01:20:54;;;;;;;9.88;7.72;;;19.80;99.90;;;;;;5044087;28;20280;-85
2021/06/28 01:23:25;;;;;;;7.80;6.65;;;19.70;99.90;;;;;;5045322;28;20393;-85
2021/06/28 01:25:59;;;;;;;12.18;7.60;;;19.70;99.90;;;;;;5035931;28;20095;-88
2021/06/28 01:28:26;;;;;;;9.07;7.43;;;19.70;99.90;;;;;;5031954;28;20439;-86
2021/06/28 01:30:54;;;;;;;8.85;7.05;;;19.70;99.90;;;;;;5032754;28;20164;-85
2021/06/28 01:33:20;;;;;;;8.48;7.13;;;19.70;99.90;;;;;;5033887;28;20070;-85
2021/06/28 01:35:47;;;;;;;9.00;7.10;;;19.60;99.90;;;;;;5032575;28;20124;-85
2021/06/28 01:38:12;;;;;;;9.68;7.78;;;19.70;99.90;;;;;;5032582;28;20021;-85
2021/06/28 01:40:40;;;;;;;12.00;8.02;;;19.70;99.90;;;;;;5033867;28;20032;-85
2021/06/28 01:43:06;;;;;;;10.02;7.47;;;19.60;99.90;;;;;;5032977;28;20370;-86
2021/06/28 01:45:32;;;;;;;8.70;7.75;;;19.70;99.90;;;;;;5041525;28;20026;-87
2021/06/28 01:47:58;;;;;;;8.63;7.43;;;19.60;99.90;;;;;;5043572;28;20022;-86
2021/06/28 01:50:27;;;;;;;8.85;7.57;;;19.70;99.90;;;;;;5043760;28;20071;-86
2021/06/28 01:52:53;;;;;;;9.45;7.10;;;19.70;99.90;;;;;;5043694;28;20034;-85
2021/06/28 01:55:21;;;;;;;8.80;7.70;;;19.70;99.90;;;;;;5043024;28;20346;-85
2021/06/28 01:57:52;;;;;;;9.00;7.38;;;19.70;99.90;;;;;;5043030;28;20065;-86
2021/06/28 02:00:25;;;;;;;9.40;7.13;;;19.70;99.90;;;;;;5035250;28;20084;-85
2021/06/28 02:03:05;;;;;;;9.20;7.25;;;19.60;99.90;;;;;;5032102;28;20033;-85
2021/06/28 02:05:36;;;;;;;8.27;7.38;;;19.70;99.90;;;;;;5033013;28;20084;-85
2021/06/28 02:08:04;;;;;;;11.18;8.27;;;19.60;99.90;;;;;;5033041;28;20101;-85
2021/06/28 02:10:30;;;;;;;;;;;19.60;99.90;;;;;;5032120;28;20025;-85
2021/06/28 02:12:56;;;;;;;8.82;7.28;;;19.60;99.90;;;;;;5031788;28;19905;-85
2021/06/28 02:15:24;;;;;;;9.70;7.40;;;19.60;99.90;;;;;;5031783;28;20040;-85
2021/06/28 02:17:50;;;;;;;9.07;7.38;;;19.50;99.90;;;;;;5031550;28;20037;-85
2021/06/28 02:20:20;;;;;;;10.18;8.18;;;19.50;99.90;;;;;;5031292;28;20041;-88
2021/06/28 02:22:49;;;;;;;10.85;8.40;;;19.50;99.90;;;;;;5033051;28;20028;-86
2021/06/28 02:25:15;;;;;;;9.80;7.75;;;19.50;99.90;;;;;;5031433;28;20486;-85
2021/06/28 02:27:41;;;;;;;9.48;7.38;;;19.50;99.90;;;;;;5032635;28;20168;-86
2021/06/28 02:30:11;;;;;;;9.05;7.60;;;19.50;99.90;;;;;;5031190;28;20030;-86
2021/06/28 02:32:37;;;;;;;9.85;7.80;;;19.50;99.90;;;;;;5031197;28;20041;-86
2021/06/28 02:35:06;;;;;;;9.15;8.13;;;19.50;99.90;;;;;;5031232;28;20029;-85
2021/06/28 02:37:32;;;;;;;10.10;8.25;;;19.50;99.90;;;;;;5030478;28;20501;-85
2021/06/28 02:39:58;;;;;;;11.52;8.05;;;19.60;99.90;;;;;;5029864;28;20044;-85
2021/06/28 02:42:24;;;;;;;10.38;8.68;;;19.50;99.90;;;;;;5031137;28;20029;-85
2021/06/28 02:44:49;;;;;;;9.50;7.65;;;19.50;99.90;;;;;;5032339;28;20048;-85
2021/06/28 02:47:15;;;;;;;10.00;7.90;;;19.60;99.90;;;;;;5031119;28;20036;-85
2021/06/28 02:49:41;;;;;;;11.43;8.00;;;19.60;99.90;;;;;;5032169;28;20040;-87
2021/06/28 02:52:06;;;;;;;9.15;7.50;;;19.60;99.90;;;;;;5031119;28;20036;-85
2021/06/28 02:54:32;;;;;;;10.55;8.20;;;19.60;99.90;;;;;;5031072;28;20075;-85
2021/06/28 02:56:58;;;;;;;9.77;7.63;;;19.60;99.90;;;;;;5031054;28;20071;-85
2021/06/28 02:59:23;;;;;;;8.95;7.85;;;19.50;99.90;;;;;;5030919;28;20402;-86
2021/06/28 03:01:49;;;;;;;9.32;8.00;;;19.50;99.90;;;;;;5030927;28;20018;-86
2021/06/28 03:04:14;;;;;;;10.25;8.70;;;19.40;99.90;;;;;;5031020;28;20017;-85
2021/06/28 03:06:40;;;;;;;10.57;8.43;;;19.40;99.90;;;;;;5032244;28;20033;-85
2021/06/28 03:09:06;;;;;;;11.25;8.88;;;19.30;99.90;;;;;;5030839;28;20018;-85
2021/06/28 03:11:32;;;;;;;11.05;8.48;;;19.30;99.90;;;;;;5030749;28;20025;-85
2021/06/28 03:13:57;;;;;;;10.07;8.60;;;19.20;99.90;;;;;;5032145;28;20033;-86
2021/06/28 03:16:23;;;;;;;10.13;7.80;;;19.20;99.90;;;;;;5032018;28;20052;-85
2021/06/28 03:18:49;;;;;;;11.32;8.35;;;19.10;99.90;;;;;;5030734;28;20033;-85
2021/06/28 03:21:15;;;;;;;10.55;8.50;;;19.10;99.90;;;;;;5032182;28;20546;-85
2021/06/28 03:23:42;;;;;;;8.85;7.95;;;19.10;99.90;;;;;;5032085;28;20041;-85
2021/06/28 03:26:08;;;;;;;10.90;9.00;;;19.10;99.90;;;;;;5030614;28;20383;-86
2021/06/28 03:28:34;;;;;;;11.50;8.30;;;19.10;99.90;;;;;;5030821;28;20060;-85
2021/06/28 03:31:01;;;;;;;11.63;8.70;;;19.00;99.90;;;;;;5030579;28;20030;-85
2021/06/28 03:33:27;;;;;;;10.18;8.65;;;19.00;99.90;;;;;;5030756;28;20117;-85
2021/06/28 03:35:53;;;;;;;11.77;9.15;;;19.00;99.90;;;;;;5031951;28;20112;-86
2021/06/28 03:38:19;;;;;;;12.43;9.57;;;19.00;99.90;;;;;;5030655;28;20045;-85
2021/06/28 03:40:45;;;;;;;13.00;9.85;;;19.00;99.90;;;;;;5030530;28;20052;-85
2021/06/28 03:43:11;;;;;;;12.40;9.63;;;19.00;99.90;;;;;;5031814;28;20371;-85
2021/06/28 03:45:38;;;;;;;13.18;8.98;;;19.00;99.90;;;;;;5030483;28;20554;-85
2021/06/28 03:48:06;;;;;;;12.55;9.50;;;19.00;99.90;;;;;;5030592;28;20433;-85
2021/06/28 03:50:33;;;;;;;12.95;9.95;;;19.00;99.90;;;;;;5030598;28;20026;-87
2021/06/28 03:52:59;;;;;;;10.40;9.30;;;19.00;99.90;;;;;;5034276;28;20037;-85
2021/06/28 03:55:25;;;;;;;12.80;9.68;;;19.00;99.90;;;;;;5034164;28;20026;-86
2021/06/28 03:57:50;;;;;;;10.68;8.57;;;19.00;99.90;;;;;;5034033;28;20036;-86
2021/06/28 04:00:20;;;;;;;10.30;9.07;;;19.10;99.90;;;;;;5035294;28;20021;-88
2021/06/28 04:02:46;;;;;;;10.43;8.80;;;19.00;99.90;;;;;;5034004;28;20037;-85
2021/06/28 04:05:19;;;;;;;12.73;8.82;;;19.00;99.90;;;;;;5035348;28;20490;-85
2021/06/28 04:07:45;;;;;;;11.82;8.75;;;19.00;99.90;;;;;;5034059;28;20021;-85
2021/06/28 04:10:13;;;;;;;9.63;8.63;;;19.00;99.90;;;;;;5034095;28;20022;-85
2021/06/28 04:12:38;;;;;;;11.40;9.10;;;19.00;99.90;;;;;;5033869;28;20025;-88
2021/06/28 04:15:09;;;;;;;12.48;9.40;;;19.00;99.90;;;;;;5033858;28;20504;-85
2021/06/28 04:17:36;;;;;;;10.10;8.63;;;19.00;99.90;;;;;;5033837;28;20125;-86
2021/06/28 04:20:02;;;;;;;10.10;9.00;;;19.10;99.90;;;;;;5033769;28;20037;-85
2021/06/28 04:22:28;;;;;;;10.43;8.90;;;19.10;99.90;;;;;;5033786;28;20038;-85
2021/06/28 04:24:53;;;;;;;11.13;8.38;;;19.10;99.90;;;;;;5033818;28;20033;-85
2021/06/28 04:27:19;;;;;;;9.80;8.25;;;19.10;99.90;;;;;;5034862;28;20061;-86
2021/06/28 04:29:45;;;;;;;12.43;9.32;;;19.10;99.90;;;;;;5033451;28;20057;-88
2021/06/28 04:32:11;;;;;;;12.00;9.00;;;19.10;99.90;;;;;;5033123;28;20026;-89
2021/06/28 04:34:42;;;;;;;11.05;8.50;;;19.20;99.90;;;;;;5034585;28;20037;-89
2021/06/28 04:37:08;;;;;;;11.63;8.73;;;19.20;99.90;;;;;;5033579;28;20026;-88
2021/06/28 04:39:33;;;;;;;10.82;9.20;;;19.20;99.90;;;;;;5032717;28;20531;-88
2021/06/28 04:41:59;;;;;;;12.60;9.70;;;19.20;99.90;;;;;;5033058;28;20049;-87
2021/06/28 04:44:25;;;;;;;15.15;9.40;;;19.20;99.90;;;;;;5034509;28;20146;-89
2021/06/28 04:46:50;;;;;;;11.23;8.98;;;19.30;99.90;;;;;;5033229;28;20075;-89
2021/06/28 04:49:16;;;;;;;12.73;9.13;;;19.20;99.90;;;;;;5032449;28;20033;-89
2021/06/28 04:51:41;;;;;;;12.27;9.93;;;19.30;99.90;;;;;;5034883;28;20030;-88
2021/06/28 04:54:07;;;;;;;11.40;9.07;;;19.30;99.90;;;;;;5035076;28;20100;-89
2021/06/28 04:56:33;;;;;;;12.32;8.95;;;19.30;99.90;;;;;;5033019;28;20548;-88
2021/06/28 04:58:59;;;;;;;12.90;9.30;;;19.40;99.90;;;;;;5032259;28;20030;-89
2021/06/28 05:01:24;;;;;;;12.55;9.90;;;19.40;99.90;;;;;;5035208;28;20025;-89
2021/06/28 05:03:50;;;;;;;11.65;9.75;;;19.40;99.90;;;;;;5034941;28;20033;-88
2021/06/28 05:06:15;;;;;;;12.55;9.50;;;19.40;99.90;;;;;;5034685;28;20087;-87
2021/06/28 05:08:41;;;;;;;12.45;9.23;;;19.50;99.90;;;;;;5034283;28;20040;-88
2021/06/28 05:11:07;;;;;;;13.57;9.18;;;19.50;99.90;;;;;;5032394;28;20025;-87
2021/06/28 05:13:32;;;;;;;12.52;9.57;;;19.50;99.90;;;;;;5032689;28;20018;-88
2021/06/28 05:15:58;;;;;;;11.82;8.90;;;19.50;99.90;;;;;;5032705;28;20151;-88
2021/06/28 05:18:24;;;;;;;10.10;8.77;;;19.50;99.90;;;;;;5032806;28;20026;-89
2021/06/28 05:20:50;;;;;;;12.23;8.85;;;19.60;99.90;;;;;;5032550;28;20044;-88
2021/06/28 05:23:17;;;;;;;11.05;9.48;;;19.60;99.90;;;;;;5033564;28;20026;-88
2021/06/28 05:25:44;;;;;;;11.45;9.27;;;19.70;99.90;;;;;;5032204;28;20398;-88
2021/06/28 05:28:11;;;;;;;12.35;8.70;;;19.70;99.90;;;;;;5033647;28;20028;-88
2021/06/28 05:30:36;;;;;;;11.95;8.35;;;19.70;99.90;;;;;;5031731;28;20025;-88
2021/06/28 05:33:02;;;;;;;17.63;10.75;;;19.80;99.90;;;;;;5032152;28;20025;-88
2021/06/28 05:35:28;;;;;;;12.50;9.80;;;19.80;99.90;;;;;;5032024;28;20390;-88
2021/06/28 05:37:53;;;;;;;11.45;10.13;;;19.80;99.90;;;;;;5033224;28;20029;-88
2021/06/28 05:40:19;;;;;;;10.93;8.80;;;19.90;99.90;;;;;;5032652;28;20044;-88
2021/06/28 05:42:46;;;;;;;12.40;10.15;;;20.00;99.90;;;;;;5032002;28;20031;-88
2021/06/28 05:45:13;;;;;;;13.63;10.27;;;20.00;99.90;;;;;;5033314;28;20079;-88
2021/06/28 05:47:39;;;;;;;12.63;10.93;;;20.00;99.90;;;;;;5031729;28;20495;-87
2021/06/28 05:50:07;;;;;;;11.10;9.38;;;20.00;99.90;;;;;;5031194;28;20049;-87
2021/06/28 05:52:33;;;;;;;11.13;9.60;;;20.10;99.90;;;;;;5031707;28;20053;-88
2021/06/28 05:55:00;;;;;;;11.85;9.82;;;20.20;99.90;;;;;;5032917;28;20026;-88
2021/06/28 05:57:26;;;;;;;14.88;11.27;;;20.20;99.90;;;;;;5033102;28;20073;-88
2021/06/28 05:59:54;;;;;;;13.75;10.90;;;20.20;99.90;;;;;;5030999;28;20057;-88
2021/06/28 06:02:20;;;;;;;12.10;10.52;;;20.30;99.90;;;;;;5031643;28;20378;-88
2021/06/28 06:04:45;;;;;;;13.55;10.35;;;20.30;99.90;;;;;;5031508;28;20036;-88
2021/06/28 06:07:11;;;;;;;12.70;10.02;;;20.30;99.90;;;;;;5031526;28;20056;-88
2021/06/28 06:09:37;;;;;;;11.43;9.65;;;20.30;99.90;;;;;;5032074;28;20095;-88
2021/06/28 06:12:03;;;;;;;12.50;9.75;;;20.30;99.90;;;;;;5032657;28;20021;-88
2021/06/28 06:14:29;;;;;;;10.35;9.05;;;20.40;99.90;;;;;;5030987;28;20270;-88
2021/06/28 06:16:55;;;;;;;11.98;9.52;;;20.40;99.90;;;;;;5031321;28;20041;-88
2021/06/28 06:19:20;;;;;;;11.43;9.40;;;20.50;99.90;;;;;;5030562;28;20034;-88
2021/06/28 06:21:46;;;;;;;11.48;9.98;;;20.50;99.90;;;;;;5032521;28;20048;-87
2021/06/28 06:24:12;;;;;;;10.35;8.95;;;20.50;99.90;;;;;;5031163;28;20025;-87
2021/06/28 06:26:38;;;;;;;12.73;9.55;;;20.50;99.90;;;;;;5030996;28;20025;-88
2021/06/28 06:29:04;;;;;;;12.13;9.25;;;20.60;99.90;;;;;;5031285;28;20026;-87
2021/06/28 06:31:30;;;;;;;12.88;9.52;;;20.60;99.90;;;;;;5031739;28;20021;-88
2021/06/28 06:33:56;;;;;;;12.10;9.52;;;20.60;99.90;;;;;;5031710;28;20092;-87
2021/06/28 06:36:22;;;;;;;15.43;10.57;;;20.60;99.90;;;;;;5032197;28;20025;-87
2021/06/28 06:38:47;;;;;;;12.20;10.88;;;20.70;99.90;;;;;;5030271;28;20281;-87
2021/06/28 06:41:13;;;;;;;11.38;10.02;;;20.70;99.90;;;;;;5030759;28;20025;-87
2021/06/28 06:43:39;;;;;;;11.38;9.60;;;20.70;99.90;;;;;;5030982;28;20028;-87
2021/06/28 06:46:05;;;;;;;11.25;9.48;;;20.70;99.90;;;;;;5031973;28;20470;-87
2021/06/28 06:48:30;;;;;;;11.23;9.40;;;20.80;99.90;;;;;;5032157;28;20055;-87
2021/06/28 06:50:56;;;;;;;11.45;9.00;;;20.80;99.90;;;;;;5030244;28;20026;-87
2021/06/28 06:53:22;;;;;;;11.00;9.35;;;20.80;99.90;;;;;;5031980;28;20029;-87
2021/06/28 06:55:48;;;;;;;11.25;9.52;;;20.80;99.90;;;;;;5030923;28;20036;-87
2021/06/28 06:58:14;;;;;;;11.60;9.20;;;20.80;99.90;;;;;;5030743;28;20022;-87
2021/06/28 07:00:42;;;;;;;9.38;8.38;;;20.90;99.90;;;;;;5030349;28;20021;-87
2021/06/28 07:03:08;;;;;;;10.10;8.95;;;20.90;99.90;;;;;;5030566;28;20037;-87
2021/06/28 07:05:34;;;;;;;12.30;10.27;;;21.00;99.90;;;;;;5030755;28;20056;-87
2021/06/28 07:08:00;;;;;;;12.82;11.30;;;21.00;99.90;;;;;;5030670;28;20485;-87
2021/06/28 07:10:25;;;;;;;12.43;11.13;;;21.00;99.90;;;;;;5031487;28;20021;-88
2021/06/28 07:12:51;;;;;;;16.38;13.77;;;21.00;99.90;;;;;;5031857;28;20053;-87
2021/06/28 07:15:19;;;;;;;13.77;12.27;;;21.00;99.90;;;;;;5031899;28;20087;-87
2021/06/28 07:17:45;;;;;;;14.77;12.57;;;21.10;99.90;;;;;;5030507;28;20457;-87
2021/06/28 07:20:13;;;;;;;12.55;11.25;;;21.10;99.90;;;;;;5029665;28;20033;-88
2021/06/28 07:22:39;;;;;;;13.18;10.23;;;21.10;99.90;;;;;;5030266;28;20033;-87
2021/06/28 07:25:06;;;;;;;12.25;10.73;;;21.10;99.90;;;;;;5031695;28;20029;-88
2021/06/28 07:27:33;;;;;;;16.30;11.90;;;21.10;99.90;;;;;;5033727;28;20108;-87
2021/06/28 07:29:58;;;;;;;14.88;12.45;;;21.10;99.90;;;;;;5034037;28;20028;-87
2021/06/28 07:32:24;;;;;;;14.35;12.60;;;21.20;99.90;;;;;;5034297;28;20453;-87
2021/06/28 07:34:50;;;;;;;13.70;12.00;;;21.20;99.90;;;;;;5034302;28;20108;-88
2021/06/28 07:37:15;;;;;;;11.60;10.40;;;21.20;99.90;;;;;;5034511;28;20049;-88
2021/06/28 07:39:41;;;;;;;15.82;10.48;;;21.20;99.90;;;;;;5033748;28;20141;-87
2021/06/28 07:42:07;;;;;;;11.68;9.80;;;21.20;99.90;;;;;;5034560;28;20074;-88
2021/06/28 07:44:32;;;;;;;11.45;10.25;;;21.30;99.90;;;;;;5034334;28;20033;-87
2021/06/28 07:46:58;;;;;;;13.75;10.73;;;21.40;99.90;;;;;;5034061;28;20025;-87
2021/06/28 07:49:24;;;;;;;13.38;10.05;;;21.50;99.90;;;;;;5033434;28;20053;-87
2021/06/28 07:51:50;;;;;;;11.65;10.43;;;21.50;99.90;;;;;;5034103;28;20049;-87
2021/06/28 07:54:17;;;;;;;13.45;10.20;;;21.60;99.90;;;;;;5034093;28;20470;-88
2021/06/28 07:56:44;;;;;;;13.38;9.95;;;21.60;99.80;;;;;;5034988;28;20386;-88
2021/06/28 07:59:09;;;;;;;13.38;10.05;;;21.60;99.70;;;;;;5033208;28;20056;-87
2021/06/28 08:01:35;;;;;;;10.77;8.93;;;21.70;99.70;;;;;;5033909;28;20064;-88
2021/06/28 08:04:01;;;;;;;11.15;9.55;;;21.70;99.70;;;;;;5033727;28;20029;-87
2021/06/28 08:06:28;;;;;;;10.07;8.43;;;21.70;99.80;;;;;;5033588;28;20382;-87
2021/06/28 08:08:54;;;;;;;10.15;9.02;;;21.60;99.80;;;;;;5034338;28;20115;-87
2021/06/28 08:11:21;;;;;;;10.60;9.25;;;21.70;99.90;;;;;;5033718;28;20022;-88
2021/06/28 08:13:51;;;;;;;11.32;9.52;;;21.70;99.80;;;;;;5035051;28;20049;-87
2021/06/28 08:16:18;;;;;;;12.25;9.88;;;21.70;99.60;;;;;;5035472;28;20183;-87
2021/06/28 08:18:47;;;;;;;10.25;9.25;;;21.80;99.30;;;;;;5035187;28;20029;-88
2021/06/28 08:21:13;;;;;;;10.55;9.10;;;21.80;99.30;;;;;;5034439;28;20037;-88
2021/06/28 08:23:39;;;;;;;10.40;9.30;;;21.80;99.40;;;;;;5033473;28;20029;-87
2021/06/28 08:26:05;;;;;;;11.88;9.48;;;21.80;99.60;;;;;;5034808;28;20029;-88
2021/06/28 08:28:31;;;;;;;11.23;10.02;;;21.80;99.90;;;;;;5034645;28;20489;-88
2021/06/28 08:30:57;;;;;;;11.50;10.15;;;21.80;99.90;;;;;;5033931;28;20033;-88
2021/06/28 08:33:23;;;;;;;12.80;10.57;;;21.80;99.90;;;;;;5033377;28;20076;-88
2021/06/28 08:35:48;;;;;;;13.45;10.73;;;21.90;99.90;;;;;;5034601;28;20033;-87
2021/06/28 08:38:14;;;;;;;11.27;9.57;;;21.90;99.90;;;;;;5034081;28;20112;-88
2021/06/28 08:40:40;;;;;;;11.23;9.88;;;21.90;99.90;;;;;;5033905;28;20029;-87
2021/06/28 08:43:06;;;;;;;11.57;9.75;;;21.90;99.90;;;;;;5033228;28;20025;-87
2021/06/28 08:45:38;;;;;;;11.55;10.20;;;22.00;99.90;;;;;;5032861;28;20470;-87
2021/06/28 08:48:05;;;;;;;11.18;9.98;;;22.00;99.80;;;;;;5034490;28;20025;-87
2021/06/28 08:50:32;;;;;;;10.90;9.13;;;21.90;99.80;;;;;;5032550;28;20029;-87
2021/06/28 08:52:58;;;;;;;10.38;9.25;;;22.00;99.90;;;;;;5034074;28;20018;-88
2021/06/28 08:55:24;;;;;;;8.82;7.90;;;22.00;99.90;;;;;;5032926;28;20036;-87
2021/06/28 08:57:50;;;;;;;8.93;7.97;;;22.00;99.50;;;;;;5032930;28;20079;-87
2021/06/28 09:00:17;;;;;;;12.40;9.27;;;22.10;99.20;;;;;;5033581;28;20065;-87
2021/06/28 09:02:44;;;;;;;11.18;9.45;;;22.20;99.20;;;;;;5033975;28;20026;-87
2021/06/28 09:05:11;;;;;;;10.65;9.02;;;22.20;98.90;;;;;;5033781;28;20029;-88
2021/06/28 09:07:37;;;;;;;9.82;8.82;;;22.30;98.90;;;;;;5034011;28;20026;-88
2021/06/28 09:10:04;;;;;;;10.00;8.20;;;22.20;98.80;;;;;;5032083;28;20474;-87
2021/06/28 09:12:30;;;;;;;9.95;8.27;;;22.20;99.00;;;;;;5032435;28;20577;-87
2021/06/28 09:14:59;;;;;;;9.60;8.60;;;22.20;99.10;;;;;;5032487;28;20112;-87
2021/06/28 09:17:47;;;;;;;10.10;8.05;;;22.20;99.30;;;;;;5033930;28;20024;-88
2021/06/28 09:20:20;;;;;;;10.73;8.20;;;22.10;99.00;;;;;;5031760;28;20135;-87
2021/06/28 09:22:47;;;;;;;9.60;8.55;;;22.10;99.20;;;;;;5033552;28;20044;-88
2021/06/28 09:25:38;;;;;;;10.02;8.90;;;22.10;99.10;;;;;;5032115;28;20032;-87
2021/06/28 09:28:04;;;;;;;10.82;8.98;;;22.20;99.50;;;;;;5032254;28;20053;-88
2021/06/28 09:30:30;;;;;;;10.68;8.95;;;22.30;99.40;;;;;;5031568;28;20056;-87
2021/06/28 09:33:01;;;;;;;9.57;8.65;;;22.30;99.20;;;;;;5033099;28;20017;-87
2021/06/28 09:35:36;;;;;;;10.25;8.75;;;22.40;99.00;;;;;;5033188;28;20423;-88
2021/06/28 09:38:07;;;;;;;11.02;8.70;;;22.40;99.10;;;;;;5033352;28;20036;-87
2021/06/28 09:40:37;;;;;;;9.50;8.50;;;22.40;99.10;;;;;;5031396;28;20394;-88
2021/06/28 09:43:23;;;;;;;11.68;9.25;;;22.50;99.10;;;;;;5033319;28;20028;-87
2021/06/28 09:45:51;;;;;;;10.18;8.57;;;22.60;98.70;;;;;;5033044;28;20026;-87
2021/06/28 09:48:24;;;;;;;;;;;22.60;98.80;;;;;;5033507;28;20041;-88
2021/06/28 09:50:50;;;;;;;11.15;9.43;;;22.60;98.40;;;;;;5031712;28;19931;-88
2021/06/28 09:53:26;;;;;;;10.63;8.88;;;22.70;98.50;;;;;;5031632;28;20022;-87
2021/06/28 09:55:52;;;;;;;13.10;9.48;;;22.80;97.70;;;;;;5031765;28;20487;-88
2021/06/28 09:58:25;;;;;;;9.50;8.50;;;22.80;98.10;;;;;;5031643;28;20040;-88
2021/06/28 10:00:56;;;;;;;9.38;8.38;;;22.90;97.90;;;;;;5032246;28;20382;-88
2021/06/28 10:03:24;;;;;;;10.43;8.32;;;22.90;97.90;;;;;;5032888;28;20033;-88
2021/06/28 10:06:08;;;;;;;10.35;9.25;;;23.00;97.90;;;;;;5032755;28;20029;-88
2021/06/28 10:08:38;;;;;;;13.13;8.75;;;23.00;97.70;;;;;;5032810;28;20029;-87
2021/06/28 10:11:10;;;;;;;9.75;8.63;;;23.10;97.50;;;;;;5030686;28;20033;-87
2021/06/28 10:13:36;;;;;;;12.23;8.65;;;23.20;97.50;;;;;;5032652;28;20021;-87
2021/06/28 10:16:03;;;;;;;10.32;8.90;;;23.20;97.30;;;;;;5031243;28;20029;-87
2021/06/28 10:18:29;;;;;;;9.90;8.90;;;23.30;97.10;;;;;;5032605;28;20025;-87
2021/06/28 10:20:55;;;;;;;10.77;8.40;;;23.30;97.00;;;;;;5030667;28;20406;-88
2021/06/28 10:23:21;;;;;;;10.35;8.55;;;23.30;97.10;;;;;;5031148;28;20025;-87
2021/06/28 10:25:46;;;;;;;10.55;8.82;;;23.40;96.90;;;;;;5032304;28;20033;-88
2021/06/28 10:28:12;;;;;;;8.75;7.85;;;23.50;97.00;;;;;;5031141;28;20029;-88
2021/06/28 10:30:38;;;;;;;10.93;8.30;;;23.50;96.80;;;;;;5031786;28;20025;-87
2021/06/28 10:33:08;;;;;;;10.88;8.43;;;23.40;96.60;;;;;;5031021;28;20036;-87
2021/06/28 10:35:37;;;;;;;9.05;8.15;;;23.40;96.80;;;;;;5032358;28;20018;-87
2021/06/28 10:38:09;;;;;;;10.75;8.70;;;23.30;96.90;;;;;;5030926;28;20037;-87
2021/06/28 10:40:57;;;;;;;9.88;8.32;;;23.30;96.90;;;;;;5030446;28;20497;-88
2021/06/28 10:43:33;;;;;;;10.80;9.15;;;23.30;96.80;;;;;;5031085;28;20375;-87
2021/06/28 10:46:01;;;;;;;9.45;8.32;;;23.20;96.80;;;;;;5031961;28;20026;-88
2021/06/28 10:48:29;;;;;;;10.40;8.67;;;23.20;97.00;;;;;;5031946;28;20096;-87
2021/06/28 10:50:59;;;;;;;11.05;9.63;;;23.20;97.20;;;;;;5030348;28;20267;-88
2021/06/28 10:53:34;;;;;;;9.55;8.50;;;23.10;97.10;;;;;;5032223;28;20108;-87
2021/06/28 10:59:04;;;;;;;11.30;8.70;;;23.20;96.80;;;;;;5031959;28;20033;-87
2021/06/28 11:01:40;;;;;;;10.25;8.90;;;23.20;96.90;;;;;;5037119;28;20036;-87
2021/06/28 11:04:22;;;;;;;8.30;7.50;;;23.20;96.70;;;;;;5032875;28;20033;-88
2021/06/28 11:07:00;;;;;;;11.02;9.10;;;23.20;96.80;;;;;;5032712;28;20506;-87
2021/06/28 11:09:47;;;;;;;11.68;9.30;;;23.20;96.90;;;;;;5037206;28;20093;-88
2021/06/28 11:12:24;;;;;;;11.80;9.93;;;23.30;96.90;;;;;;5031784;28;20052;-88
2021/06/28 11:14:50;;;;;;;10.07;9.07;;;23.30;97.30;;;;;;5030593;28;20029;-88
2021/06/28 11:17:37;;;;;;;10.18;8.70;;;23.30;96.70;;;;;;5030655;28;20533;-88
2021/06/28 11:20:06;;;;;;;9.80;8.80;;;23.30;96.70;;;;;;5031581;28;20091;-87
2021/06/28 11:22:36;;;;;;;12.10;10.80;;;23.30;96.70;;;;;;5031788;28;20502;-87
2021/06/28 11:25:25;;;;;;;17.40;11.18;;;23.50;96.40;;;;;;5032352;28;20474;-88
2021/06/28 11:27:56;;;;;;;13.63;10.95;;;23.60;96.00;;;;;;5030763;28;20030;-87
2021/06/28 11:30:24;;;;;;;13.02;9.82;;;23.70;95.50;;;;;;5031418;28;20030;-87
2021/06/28 11:32:58;;;;;;;12.25;10.07;;;23.80;95.30;;;;;;5033219;28;20013;-88
2021/06/28 11:35:38;;;;;;;11.98;9.35;;;23.80;95.10;;;;;;5032453;28;20025;-88
2021/06/28 11:38:25;;;;;;;11.07;9.98;;;23.80;95.10;;;;;;5030760;28;20025;-87
2021/06/28 11:40:55;;;;;;;11.35;9.15;;;23.70;95.00;;;;;;5031568;28;20025;-87
2021/06/28 11:43:46;;;;;;;10.55;9.20;;;23.70;95.10;;;;;;5031753;28;20024;-88
2021/06/28 11:46:16;;;;;;;11.18;9.40;;;23.60;95.30;;;;;;5032562;28;20033;-87
2021/06/28 11:48:55;;;;;;;11.48;9.50;;;23.60;95.60;;;;;;5030995;28;20028;-87
2021/06/28 11:51:30;;;;;;;15.93;9.57;;;23.60;94.80;;;;;;5030244;28;20026;-88
2021/06/28 11:53:58;;;;;;;10.02;8.32;;;23.70;94.60;;;;;;5031578;28;20382;-88
2021/06/28 11:56:28;;;;;;;9.57;8.38;;;23.80;94.50;;;;;;5013922;28;20033;-88
2021/06/28 11:59:17;;;;;;;13.07;9.70;;;23.80;94.40;;;;;;5029548;28;20025;-87
2021/06/28 12:01:51;;;;;;;12.18;9.65;;;23.80;94.50;;;;;;5031537;28;20368;-87
2021/06/28 12:04:20;;;;;;;10.57;9.00;;;23.90;94.30;;;;;;5030177;28;20033;-88
2021/06/28 12:06:46;;;;;;;10.57;9.25;;;23.90;94.30;;;;;;5030008;28;20552;-88
2021/06/28 12:09:12;;;;;;;11.32;9.25;;;24.10;94.20;;;;;;5013143;28;20052;-87
2021/06/28 12:12:00;;;;;;;11.05;9.77;;;24.20;94.30;;;;;;5029992;28;20014;-88
2021/06/28 12:14:33;;;;;;;10.70;9.45;;;24.20;94.50;;;;;;5033131;28;20021;-88
2021/06/28 12:17:00;;;;;;;9.48;8.52;;;24.20;94.40;;;;;;5034712;28;20029;-88
2021/06/28 12:19:26;;;;;;;10.07;9.02;;;24.20;94.50;;;;;;5034087;28;20057;-88
2021/06/28 12:21:52;;;;;;;10.60;9.02;;;24.20;94.60;;;;;;5034827;28;20442;-88
2021/06/28 12:24:20;;;;;;;13.02;8.30;;;24.20;94.80;;;;;;5033536;28;20060;-88
2021/06/28 12:27:05;;;;;;;9.77;8.77;;;24.30;94.80;;;;;;5034565;28;20025;-87
2021/06/28 12:29:41;;;;;;;10.15;9.02;;;24.30;94.40;;;;;;5032809;28;20108;-88
2021/06/28 12:32:14;;;;;;;10.10;9.10;;;24.20;95.00;;;;;;5033340;28;20025;-88
2021/06/28 12:35:04;;;;;;;10.90;9.35;;;24.20;94.90;;;;;;5033417;28;20080;-87
2021/06/28 12:37:34;;;;;;;10.85;9.23;;;24.10;94.80;;;;;;5034067;28;20069;-88
2021/06/28 12:40:18;;;;;;;11.55;9.43;;;24.20;94.70;;;;;;5033844;28;20053;-88
2021/06/28 12:42:59;;;;;;;10.02;9.00;;;24.10;94.80;;;;;;5033154;28;20055;-88
2021/06/28 12:45:29;;;;;;;12.48;9.68;;;24.10;94.80;;;;;;5034503;28;20027;-88